createdAt,value
2023-05-02T00:00:29.591Z,11.77
2023-05-02T00:02:56.534Z,9.75
2023-05-02T00:05:23.902Z,12.50
2023-05-02T00:07:51.602Z,11.18
2023-05-02T00:10:18.934Z,11.07
2023-05-02T00:12:45.667Z,12.02
2023-05-02T00:15:12.415Z,12.23
2023-05-02T00:17:42.314Z,8.27
2023-05-02T00:20:10.641Z,10.52
2023-05-02T00:22:37.740Z,10.60
2023-05-02T00:25:04.996Z,10.90
2023-05-02T00:27:32.141Z,9.35
2023-05-02T00:30:00.421Z,10.23
2023-05-02T00:32:28.124Z,10.43
2023-05-02T00:34:55.011Z,12.05
2023-05-02T00:37:21.657Z,11.10
2023-05-02T00:39:48.335Z,12.95
2023-05-02T00:42:14.987Z,11.00
2023-05-02T00:44:41.596Z,10.45
2023-05-02T00:47:08.396Z,12.20
2023-05-02T00:49:35.014Z,10.73
2023-05-02T00:52:02.475Z,9.23
2023-05-02T00:54:30.969Z,11.48
2023-05-02T00:56:57.591Z,10.60
2023-05-02T00:59:25.084Z,11.55
2023-05-02T01:01:57.442Z,11.98
2023-05-02T01:04:42.655Z,10.80
2023-05-02T01:07:16.340Z,9.68
2023-05-02T01:10:07.262Z,9.85
2023-05-02T01:12:49.549Z,11.35
2023-05-02T01:15:19.008Z,11.23
2023-05-02T01:17:47.105Z,11.35
2023-05-02T01:20:17.440Z,10.73
2023-05-02T01:22:44.692Z,12.48
2023-05-02T01:25:29.798Z,12.05
2023-05-02T01:28:06.116Z,11.15
2023-05-02T01:30:36.378Z,12.45
2023-05-02T01:33:04.474Z,11.55
2023-05-02T01:35:33.825Z,11.63
2023-05-02T01:38:02.604Z,13.85
2023-05-02T01:40:30.285Z,10.30
2023-05-02T01:42:58.644Z,9.88
2023-05-02T01:45:27.612Z,10.20
2023-05-02T01:47:54.893Z,12.43
2023-05-02T01:50:24.706Z,11.05
2023-05-02T01:52:54.026Z,11.82
2023-05-02T01:55:21.337Z,11.48
2023-05-02T01:57:50.646Z,11.23
2023-05-02T02:00:19.485Z,9.52
2023-05-02T02:02:48.982Z,10.85
2023-05-02T02:05:17.721Z,13.20
2023-05-02T02:07:44.850Z,10.85
2023-05-02T02:10:11.888Z,12.35
2023-05-02T02:13:04.439Z,11.32
2023-05-02T02:15:36.055Z,10.70
2023-05-02T02:18:10.218Z,11.35
2023-05-02T02:20:37.697Z,11.23
2023-05-02T02:23:08.362Z,12.32
2023-05-02T02:25:35.960Z,10.43
2023-05-02T02:28:02.693Z,12.65
2023-05-02T02:30:29.409Z,10.00
2023-05-02T02:32:56.062Z,10.10
2023-05-02T02:35:23.610Z,12.15
2023-05-02T02:38:25.726Z,10.90
2023-05-02T02:41:12.292Z,11.95
2023-05-02T02:43:53.767Z,11.43
2023-05-02T02:46:58.205Z,9.93
2023-05-02T02:49:32.400Z,10.23
2023-05-02T02:52:30.127Z,10.07
2023-05-02T02:55:12.730Z,9.35
2023-05-02T02:58:01.923Z,11.70
2023-05-02T03:00:29.194Z,13.07
2023-05-02T03:02:56.762Z,10.23
2023-05-02T03:05:24.465Z,10.40
2023-05-02T03:07:51.907Z,10.65
2023-05-02T03:10:18.630Z,10.50
2023-05-02T03:12:45.387Z,10.05
2023-05-02T03:15:24.706Z,12.20
2023-05-02T03:17:51.372Z,10.95
2023-05-02T03:20:18.175Z,8.57
2023-05-02T03:22:44.846Z,11.05
2023-05-02T03:25:11.453Z,11.23
2023-05-02T03:27:38.078Z,10.32
2023-05-02T03:30:05.383Z,8.40
2023-05-02T03:32:32.081Z,9.98
2023-05-02T03:34:59.342Z,10.45
2023-05-02T03:41:13.144Z,10.70
2023-05-02T03:43:39.814Z,9.60
2023-05-02T03:46:09.281Z,10.20
2023-05-02T03:48:36.554Z,12.13
2023-05-02T03:51:05.677Z,10.98
2023-05-02T03:53:32.421Z,10.25
2023-05-02T03:55:59.285Z,11.15
2023-05-02T03:58:26.883Z,11.32
2023-05-02T04:00:54.444Z,11.45
2023-05-02T04:05:48.506Z,13.13
2023-05-02T04:08:15.561Z,11.45
2023-05-02T04:10:42.185Z,10.57
2023-05-02T04:13:08.791Z,11.40
2023-05-02T04:15:35.533Z,11.77
2023-05-02T04:18:02.196Z,12.18
2023-05-02T04:20:29.466Z,10.88
2023-05-02T04:22:56.102Z,11.45
2023-05-02T04:25:22.711Z,9.98
2023-05-02T04:27:49.346Z,11.98
2023-05-02T04:30:16.210Z,10.77
2023-05-02T04:32:42.962Z,10.75
2023-05-02T04:35:09.985Z,11.23
2023-05-02T04:37:36.702Z,12.05
2023-05-02T04:40:04.254Z,11.77
2023-05-02T04:42:30.875Z,12.13
2023-05-02T04:44:57.507Z,8.32
2023-05-02T04:47:24.165Z,10.98
2023-05-02T04:49:50.852Z,12.25
2023-05-02T04:52:18.585Z,9.05
2023-05-02T04:54:45.278Z,9.35
2023-05-02T04:57:11.888Z,10.63
2023-05-02T04:59:38.590Z,10.23
2023-05-02T05:02:05.552Z,9.07
2023-05-02T05:04:32.295Z,11.23
2023-05-02T05:06:59.066Z,10.07
2023-05-02T05:09:25.957Z,11.43
2023-05-02T05:11:52.572Z,10.35
2023-05-02T05:14:19.227Z,9.98
2023-05-02T05:16:46.452Z,10.07
2023-05-02T05:19:13.199Z,10.50
2023-05-02T05:21:39.854Z,11.27
2023-05-02T05:24:06.713Z,9.05
2023-05-02T05:26:33.380Z,9.70
2023-05-02T05:29:00.011Z,9.85
2023-05-02T05:31:26.735Z,9.27
2023-05-02T05:33:53.551Z,13.57
2023-05-02T05:36:22.801Z,9.07
2023-05-02T05:38:51.397Z,9.18
2023-05-02T05:41:18.010Z,9.30
2023-05-02T05:43:44.702Z,11.25
2023-05-02T05:46:11.339Z,11.43
2023-05-02T05:48:38.004Z,10.38
2023-05-02T05:51:05.834Z,11.95
2023-05-02T05:53:32.974Z,11.05
2023-05-02T05:55:59.783Z,11.82
2023-05-02T05:58:26.409Z,10.85
2023-05-02T06:00:53.305Z,10.18
2023-05-02T06:03:20.028Z,9.68
2023-05-02T06:05:46.990Z,10.93
2023-05-02T06:08:13.666Z,9.82
2023-05-02T06:10:40.273Z,11.88
2023-05-02T06:13:06.969Z,12.00
2023-05-02T06:15:35.352Z,10.35
2023-05-02T06:18:02.010Z,12.63
2023-05-02T06:20:28.849Z,12.95
2023-05-02T06:22:55.622Z,11.93
2023-05-02T06:25:22.326Z,11.73
2023-05-02T06:27:48.974Z,14.07
2023-05-02T06:30:15.714Z,11.38
2023-05-02T06:32:44.021Z,14.55
2023-05-02T06:35:12.065Z,13.30
2023-05-02T06:37:38.770Z,11.90
2023-05-02T06:40:05.931Z,11.23
2023-05-02T06:42:32.556Z,13.18
2023-05-02T06:44:59.173Z,14.93
2023-05-02T06:47:26.317Z,12.38
2023-05-02T06:49:53.734Z,12.52
2023-05-02T06:52:20.451Z,13.20
2023-05-02T06:54:47.146Z,11.25
2023-05-02T06:57:13.832Z,13.73
2023-05-02T06:59:40.536Z,11.80
2023-05-02T07:02:07.967Z,11.38
2023-05-02T07:04:34.631Z,13.13
2023-05-02T07:07:01.467Z,11.93
2023-05-02T07:09:28.057Z,13.07
2023-05-02T07:11:54.689Z,10.30
2023-05-02T07:14:21.714Z,11.77
2023-05-02T07:16:48.429Z,14.57
2023-05-02T07:19:15.451Z,14.68
2023-05-02T07:21:42.107Z,12.27
2023-05-02T07:24:08.802Z,17.23
2023-05-02T07:26:35.763Z,14.38
2023-05-02T07:29:02.436Z,12.20
2023-05-02T07:31:29.339Z,17.23
2023-05-02T07:33:56.083Z,12.30
2023-05-02T07:36:22.718Z,12.80
2023-05-02T07:38:49.311Z,15.18
2023-05-02T07:41:16.060Z,12.52
2023-05-02T07:43:42.684Z,13.55
2023-05-02T07:46:09.435Z,14.82
2023-05-02T07:48:36.126Z,14.05
2023-05-02T07:51:07.329Z,12.65
2023-05-02T07:53:34.267Z,13.05
2023-05-02T07:56:01.339Z,15.77
2023-05-02T07:58:28.251Z,11.75
2023-05-02T08:00:54.986Z,17.23
2023-05-02T08:03:21.888Z,14.30
2023-05-02T08:05:48.869Z,16.88
2023-05-02T08:08:15.507Z,14.07
2023-05-02T08:10:42.184Z,12.77
2023-05-02T08:13:08.844Z,14.05
2023-05-02T08:15:35.711Z,14.10
2023-05-02T08:18:02.917Z,12.30
2023-05-02T08:20:29.701Z,16.88
2023-05-02T08:22:59.293Z,12.10
2023-05-02T08:25:26.775Z,12.85
2023-05-02T08:27:53.429Z,14.65
2023-05-02T08:30:20.562Z,12.85
2023-05-02T08:32:47.365Z,13.70
2023-05-02T08:35:14.480Z,14.05
2023-05-02T08:37:41.171Z,11.23
2023-05-02T08:40:12.382Z,12.60
2023-05-02T08:42:42.626Z,15.35
2023-05-02T08:45:11.792Z,13.13
2023-05-02T08:47:41.013Z,13.73
2023-05-02T08:50:12.497Z,12.45
2023-05-02T08:52:39.733Z,14.73
2023-05-02T08:55:07.466Z,15.18
2023-05-02T08:57:34.567Z,11.80
2023-05-02T09:00:01.844Z,14.60
2023-05-02T09:02:41.271Z,14.32
2023-05-02T09:05:10.269Z,14.30
2023-05-02T09:07:45.948Z,11.98
2023-05-02T09:10:13.103Z,15.07
2023-05-02T09:12:40.468Z,14.35
2023-05-02T09:15:11.239Z,16.35
2023-05-02T09:17:45.332Z,13.75
2023-05-02T09:20:16.536Z,15.45
2023-05-02T09:22:50.898Z,14.70
2023-05-02T09:25:18.268Z,13.82
2023-05-02T09:27:55.202Z,12.30
2023-05-02T09:30:23.903Z,12.68
2023-05-02T09:32:52.312Z,12.77
2023-05-02T09:35:23.775Z,13.05
2023-05-02T09:37:55.496Z,15.77
2023-05-02T09:40:23.231Z,15.27
2023-05-02T09:42:50.757Z,12.88
2023-05-02T09:45:21.902Z,13.20
2023-05-02T09:47:49.235Z,14.10
2023-05-02T09:50:35.189Z,13.77
2023-05-02T09:53:06.314Z,12.13
2023-05-02T09:55:33.464Z,12.70
2023-05-02T09:58:01.466Z,16.90
2023-05-02T10:00:41.562Z,13.70
2023-05-02T10:03:08.923Z,13.07
2023-05-02T10:05:40.351Z,14.68
2023-05-02T10:08:08.999Z,13.15
2023-05-02T10:10:37.236Z,11.30
2023-05-02T10:13:05.180Z,12.13
2023-05-02T10:15:33.721Z,13.60
2023-05-02T10:18:01.655Z,14.60
2023-05-02T10:20:34.934Z,16.08
2023-05-02T10:23:02.275Z,9.18
2023-05-02T10:25:29.595Z,12.90
2023-05-02T10:28:00.390Z,14.73
2023-05-02T10:30:27.564Z,12.65
2023-05-02T10:32:54.810Z,14.75
2023-05-02T10:35:21.893Z,12.38
2023-05-02T10:37:49.743Z,14.93
2023-05-02T10:40:16.998Z,14.02
2023-05-02T10:42:45.940Z,13.93
2023-05-02T10:45:32.546Z,16.92
2023-05-02T10:48:18.110Z,14.55
2023-05-02T10:50:48.964Z,15.52
2023-05-02T10:53:25.208Z,20.60
2023-05-02T10:56:10.793Z,19.30
2023-05-02T10:58:37.867Z,19.55
2023-05-02T11:01:23.504Z,21.70
2023-05-02T11:04:00.541Z,24.90
2023-05-02T11:06:28.883Z,20.55
2023-05-02T11:09:14.992Z,20.27
2023-05-02T11:11:43.820Z,18.50
2023-05-02T11:14:11.763Z,22.42
2023-05-02T11:17:06.266Z,22.17
2023-05-02T11:22:20.872Z,23.25
2023-05-02T11:24:49.122Z,26.13
2023-05-02T11:27:33.862Z,26.80
2023-05-02T11:30:09.218Z,25.02
2023-05-02T11:32:53.435Z,30.30
2023-05-02T11:38:00.788Z,26.15
2023-05-02T11:40:28.508Z,28.33
2023-05-02T11:42:56.638Z,27.77
2023-05-02T11:45:32.373Z,29.02
2023-05-02T11:47:59.080Z,26.60
2023-05-02T11:50:27.574Z,25.90
2023-05-02T11:52:54.265Z,30.55
2023-05-02T11:55:20.945Z,28.08
2023-05-02T11:57:47.645Z,23.67
2023-05-02T12:00:15.010Z,22.83
2023-05-02T12:02:47.048Z,24.75
2023-05-02T12:05:14.953Z,22.65
2023-05-02T12:07:48.882Z,25.90
2023-05-02T12:12:44.241Z,22.20
2023-05-02T12:15:12.961Z,24.13
2023-05-02T12:17:43.463Z,23.52
2023-05-02T12:20:11.196Z,21.30
2023-05-02T12:22:38.434Z,22.75
2023-05-02T12:25:06.237Z,20.80
2023-05-02T12:27:36.066Z,20.85
2023-05-02T12:30:03.598Z,21.30
2023-05-02T12:32:32.429Z,18.58
2023-05-02T12:35:00.487Z,19.42
2023-05-02T12:37:28.168Z,20.17
2023-05-02T12:39:55.609Z,20.58
2023-05-02T12:42:24.111Z,17.75
2023-05-02T12:44:56.762Z,16.52
2023-05-02T12:47:24.846Z,16.92
2023-05-02T12:49:52.216Z,16.20
2023-05-02T12:52:20.069Z,15.32
2023-05-02T12:54:47.177Z,15.70
2023-05-02T12:57:26.737Z,15.35
2023-05-02T12:59:57.011Z,16.98
2023-05-02T13:02:24.608Z,15.60
2023-05-02T13:04:52.165Z,16.25
2023-05-02T13:07:20.304Z,16.25
2023-05-02T13:09:47.327Z,17.23
2023-05-02T13:12:14.440Z,16.13
2023-05-02T13:14:41.615Z,15.90
2023-05-02T13:17:08.976Z,17.15
2023-05-02T13:19:37.344Z,16.60
2023-05-02T13:22:05.909Z,16.77
2023-05-02T13:24:33.042Z,16.95
2023-05-02T13:27:00.195Z,15.52
2023-05-02T13:29:27.275Z,15.82
2023-05-02T13:31:54.370Z,14.13
2023-05-02T13:34:21.351Z,13.65
2023-05-02T13:36:48.416Z,12.73
2023-05-02T13:39:15.463Z,10.73
2023-05-02T13:41:42.575Z,10.77
2023-05-02T13:44:09.888Z,11.55
2023-05-02T13:46:37.848Z,14.07
2023-05-02T13:49:05.633Z,12.50
2023-05-02T13:51:33.290Z,11.23
2023-05-02T13:54:01.102Z,12.02
2023-05-02T13:56:28.313Z,13.23
2023-05-02T13:58:55.598Z,10.55
2023-05-02T14:01:22.718Z,11.32
2023-05-02T14:03:50.014Z,8.95
2023-05-02T14:06:17.486Z,11.77
2023-05-02T14:08:45.065Z,11.40
2023-05-02T14:11:12.114Z,12.93
2023-05-02T14:13:39.231Z,10.35
2023-05-02T14:16:06.486Z,12.50
2023-05-02T14:18:33.656Z,11.70
2023-05-02T14:21:00.988Z,10.50
2023-05-02T14:23:31.172Z,11.77
2023-05-02T14:25:58.466Z,11.35
2023-05-02T14:28:26.944Z,10.55
2023-05-02T14:30:54.033Z,10.20
2023-05-02T14:33:21.150Z,11.52
2023-05-02T14:35:49.141Z,10.82
2023-05-02T14:38:16.304Z,9.40
2023-05-02T14:40:43.478Z,11.13
2023-05-02T14:43:14.260Z,10.98
2023-05-02T14:45:41.432Z,10.85
2023-05-02T14:48:08.784Z,10.65
2023-05-02T14:50:37.457Z,9.05
2023-05-02T14:53:04.513Z,13.38
2023-05-02T14:55:31.577Z,9.57
2023-05-02T14:57:58.641Z,13.88
2023-05-02T15:00:25.825Z,11.73
2023-05-02T15:02:53.028Z,10.63
2023-05-02T15:05:20.240Z,7.97
2023-05-02T15:07:47.360Z,9.80
2023-05-02T15:10:14.496Z,7.47
2023-05-02T15:12:43.097Z,8.77
2023-05-02T15:15:11.175Z,9.50
2023-05-02T15:17:38.294Z,8.45
2023-05-02T15:20:05.797Z,9.73
2023-05-02T15:22:32.851Z,6.95
2023-05-02T15:25:00.263Z,8.95
2023-05-02T15:27:27.901Z,8.70
2023-05-02T15:29:55.017Z,8.05
2023-05-02T15:32:22.192Z,7.70
2023-05-02T15:34:49.357Z,8.20
2023-05-02T15:37:16.413Z,7.20
2023-05-02T15:39:43.478Z,6.40
2023-05-02T15:42:10.961Z,9.35
2023-05-02T15:44:38.065Z,7.65
2023-05-02T15:47:05.505Z,5.63
2023-05-02T15:49:33.373Z,5.68
2023-05-02T15:52:01.721Z,7.30
2023-05-02T15:54:28.923Z,6.28
2023-05-02T15:56:56.167Z,5.97
2023-05-02T15:59:23.384Z,5.25
2023-05-02T16:01:50.661Z,9.18
2023-05-02T16:04:17.752Z,5.70
2023-05-02T16:06:44.977Z,5.03
2023-05-02T16:09:12.795Z,5.22
2023-05-02T16:11:39.900Z,5.18
2023-05-02T16:14:06.564Z,6.20
2023-05-02T16:16:34.330Z,8.27
2023-05-02T16:19:01.429Z,6.43
2023-05-02T16:21:28.520Z,6.32
2023-05-02T16:23:55.656Z,5.28
2023-05-02T16:26:22.779Z,7.57
2023-05-02T16:28:49.843Z,6.97
2023-05-02T16:31:17.121Z,7.47
2023-05-02T16:33:44.315Z,7.32
2023-05-02T16:36:11.581Z,8.43
2023-05-02T16:38:38.284Z,10.00
2023-05-02T16:41:06.756Z,7.55
2023-05-02T16:43:33.641Z,10.75
2023-05-02T16:46:01.572Z,10.68
2023-05-02T16:48:28.724Z,8.90
2023-05-02T16:50:55.958Z,9.95
2023-05-02T16:53:22.808Z,10.73
2023-05-02T16:55:49.683Z,9.85
2023-05-02T16:58:16.526Z,11.00
2023-05-02T17:00:43.251Z,13.45
2023-05-02T17:03:10.334Z,11.10
2023-05-02T17:05:37.647Z,10.23
2023-05-02T17:08:04.690Z,15.48
2023-05-02T17:10:31.784Z,14.25
2023-05-02T17:12:59.160Z,9.25
2023-05-02T17:15:26.312Z,9.95
2023-05-02T17:17:52.997Z,13.35
2023-05-02T17:20:20.436Z,12.38
2023-05-02T17:22:47.611Z,13.07
2023-05-02T17:25:14.773Z,12.63
2023-05-02T17:27:41.932Z,12.00
2023-05-02T17:30:09.431Z,12.52
2023-05-02T17:32:37.528Z,12.43
2023-05-02T17:35:04.807Z,13.20
2023-05-02T17:37:32.776Z,12.30
2023-05-02T17:40:02.148Z,12.63
2023-05-02T17:42:29.542Z,13.20
2023-05-02T17:44:56.664Z,9.00
2023-05-02T17:47:25.545Z,10.00
2023-05-02T17:49:53.669Z,10.88
2023-05-02T17:52:21.349Z,14.07
2023-05-02T17:54:48.433Z,12.50
2023-05-02T17:57:15.878Z,11.43
2023-05-02T17:59:42.994Z,11.90
2023-05-02T18:02:10.496Z,11.50
2023-05-02T18:04:37.704Z,11.63
2023-05-02T18:07:06.107Z,13.07
2023-05-02T18:09:33.494Z,12.65
2023-05-02T18:12:03.603Z,11.27
2023-05-02T18:14:30.708Z,14.82
2023-05-02T18:16:58.003Z,14.35
2023-05-02T18:19:25.106Z,10.57
2023-05-02T18:21:52.443Z,13.45
2023-05-02T18:24:19.536Z,12.85
2023-05-02T18:26:48.957Z,12.00
2023-05-02T18:29:16.011Z,12.05
2023-05-02T18:31:43.214Z,12.52
2023-05-02T18:34:10.270Z,14.40
2023-05-02T18:36:37.445Z,13.32
2023-05-02T18:39:04.516Z,12.70
2023-05-02T18:41:31.574Z,11.10
2023-05-02T18:44:00.515Z,12.00
2023-05-02T18:46:27.863Z,10.25
2023-05-02T18:48:54.882Z,14.25
2023-05-02T18:51:22.524Z,11.60
2023-05-02T18:53:49.651Z,11.73
2023-05-02T18:56:16.756Z,13.43
2023-05-02T18:58:43.791Z,13.32
2023-05-02T19:01:18.912Z,11.43
2023-05-02T19:03:46.171Z,12.00
2023-05-02T19:06:13.629Z,14.90
2023-05-02T19:08:40.700Z,11.85
2023-05-02T19:11:08.914Z,11.18
2023-05-02T19:13:36.118Z,12.95
2023-05-02T19:16:03.695Z,13.90
2023-05-02T19:18:30.895Z,11.98
2023-05-02T19:20:58.510Z,14.38
2023-05-02T19:23:25.557Z,15.05
2023-05-02T19:25:52.835Z,14.75
2023-05-02T19:28:19.901Z,16.17
2023-05-02T19:30:47.125Z,14.80
2023-05-02T19:33:14.269Z,15.88
2023-05-02T19:35:41.434Z,13.65
2023-05-02T19:38:09.135Z,16.55
2023-05-02T19:40:36.178Z,14.43
2023-05-02T19:43:03.205Z,14.50
2023-05-02T19:45:30.261Z,17.45
2023-05-02T19:47:57.353Z,15.93
2023-05-02T19:50:26.118Z,15.90
2023-05-02T19:52:53.245Z,17.35
2023-05-02T19:55:20.792Z,15.60
2023-05-02T19:57:48.692Z,17.55
2023-05-02T20:00:16.023Z,16.65
2023-05-02T20:02:43.197Z,16.08
2023-05-02T20:05:10.543Z,16.10
2023-05-02T20:07:37.616Z,16.90
2023-05-02T20:10:05.064Z,17.92
2023-05-02T20:12:32.346Z,19.08
2023-05-02T20:14:59.432Z,17.98
2023-05-02T20:17:26.897Z,17.95
2023-05-02T20:19:53.983Z,16.55
2023-05-02T20:22:21.267Z,17.83
2023-05-02T20:24:48.356Z,15.45
2023-05-02T20:27:15.508Z,18.95
2023-05-02T20:29:42.548Z,17.00
2023-05-02T20:32:09.613Z,16.05
2023-05-02T20:34:36.831Z,15.60
2023-05-02T20:37:06.782Z,15.50
2023-05-02T20:39:33.898Z,18.15
2023-05-02T20:42:01.400Z,17.02
2023-05-02T20:44:30.044Z,15.50
2023-05-02T20:46:57.109Z,16.70
2023-05-02T20:49:24.175Z,16.92
2023-05-02T20:51:51.549Z,16.92
2023-05-02T20:54:18.889Z,17.90
2023-05-02T20:56:46.248Z,17.48
2023-05-02T20:59:13.323Z,17.17
2023-05-02T21:01:40.383Z,17.88
2023-05-02T21:04:07.523Z,17.80
2023-05-02T21:06:34.830Z,18.45
2023-05-02T21:09:02.482Z,17.73
2023-05-02T21:11:29.637Z,18.92
2023-05-02T21:13:56.716Z,19.58
2023-05-02T21:16:23.908Z,20.73
2023-05-02T21:18:50.949Z,19.27
2023-05-02T21:21:18.009Z,20.08
2023-05-02T21:23:45.190Z,20.85
2023-05-02T21:26:12.365Z,20.67
2023-05-02T21:28:39.996Z,22.73
2023-05-02T21:31:07.992Z,21.00
2023-05-02T21:33:35.641Z,22.30
2023-05-02T21:36:02.680Z,18.75
2023-05-02T21:38:29.764Z,19.83
2023-05-02T21:40:56.801Z,20.55
2023-05-02T21:43:23.869Z,19.75
2023-05-02T21:45:51.018Z,20.27
2023-05-02T21:48:18.119Z,20.75
2023-05-02T21:50:45.348Z,22.85
2023-05-02T21:53:12.413Z,21.50
2023-05-02T21:55:39.735Z,21.02
2023-05-02T21:58:07.566Z,20.30
2023-05-02T22:00:34.855Z,23.02
2023-05-02T22:03:07.354Z,21.52
2023-05-02T22:05:39.707Z,24.80
2023-05-02T22:08:09.982Z,25.15
2023-05-02T22:10:41.759Z,20.95
2023-05-02T22:13:13.920Z,21.83
2023-05-02T22:15:45.513Z,21.80
2023-05-02T22:18:14.113Z,24.33
2023-05-02T22:20:42.112Z,23.52
2023-05-02T22:23:09.507Z,23.38
2023-05-02T22:25:39.056Z,25.38
2023-05-02T22:28:06.987Z,26.20
2023-05-02T22:30:34.153Z,22.25
2023-05-02T22:33:01.578Z,22.98
2023-05-02T22:35:28.438Z,23.33
2023-05-02T22:37:55.390Z,26.60
2023-05-02T22:40:22.030Z,26.98
2023-05-02T22:42:48.693Z,24.05
2023-05-02T22:45:15.486Z,27.08
2023-05-02T22:47:42.146Z,22.90
2023-05-02T22:50:10.121Z,25.75
2023-05-02T22:52:38.056Z,24.58
2023-05-02T22:55:09.266Z,21.90
2023-05-02T22:57:36.961Z,23.58
2023-05-02T23:00:09.210Z,26.35
2023-05-02T23:02:36.695Z,23.60
2023-05-02T23:05:04.366Z,24.05
2023-05-02T23:07:31.178Z,26.08
2023-05-02T23:09:57.820Z,24.15
2023-05-02T23:12:24.458Z,25.23
2023-05-02T23:14:51.190Z,24.33
2023-05-02T23:17:17.857Z,25.88
2023-05-02T23:19:44.547Z,22.95
2023-05-02T23:22:11.377Z,26.42
2023-05-02T23:24:38.289Z,31.70
2023-05-02T23:27:07.479Z,23.73
2023-05-02T23:29:34.179Z,24.92
2023-05-02T23:32:01.485Z,23.55
2023-05-02T23:34:28.292Z,22.58
2023-05-02T23:36:55.175Z,22.08
2023-05-02T23:39:21.862Z,25.02
2023-05-02T23:41:48.514Z,22.27
2023-05-02T23:44:15.140Z,24.02
2023-05-02T23:46:41.776Z,20.70
2023-05-02T23:49:08.455Z,19.75
2023-05-02T23:51:35.105Z,18.20
2023-05-02T23:54:01.852Z,21.52
2023-05-02T23:56:28.505Z,21.85
2023-05-02T23:58:55.514Z,20.10
